createdAt,value
2018-03-07T00:00:53.728Z,0.00
2018-03-07T00:01:53.709Z,0.00
2018-03-07T00:02:53.689Z,0.00
2018-03-07T00:03:53.665Z,0.00
2018-03-07T00:04:53.646Z,0.00
2018-03-07T00:05:53.626Z,0.00
2018-03-07T00:06:53.607Z,0.00
2018-03-07T00:07:53.589Z,0.00
2018-03-07T00:08:53.561Z,0.00
2018-03-07T00:09:53.540Z,0.00
2018-03-07T00:10:53.524Z,0.00
2018-03-07T00:11:53.497Z,0.00
2018-03-07T00:12:53.478Z,0.00
2018-03-07T00:13:53.456Z,0.00
2018-03-07T00:14:53.455Z,0.00
2018-03-07T00:15:53.416Z,0.00
2018-03-07T00:16:53.392Z,0.00
2018-03-07T00:17:53.371Z,0.00
2018-03-07T00:18:53.350Z,0.00
2018-03-07T00:19:53.331Z,0.00
2018-03-07T00:20:53.310Z,0.00
2018-03-07T00:21:53.288Z,0.00
2018-03-07T00:22:53.274Z,0.00
2018-03-07T00:23:53.254Z,0.00
2018-03-07T00:24:53.227Z,0.00
2018-03-07T00:25:53.214Z,0.00
2018-03-07T00:26:53.186Z,0.00
2018-03-07T00:27:53.165Z,0.00
2018-03-07T00:28:53.144Z,0.00
2018-03-07T00:29:53.126Z,0.00
2018-03-07T00:30:53.102Z,0.00
2018-03-07T00:31:53.080Z,0.00
2018-03-07T00:32:53.067Z,0.00
2018-03-07T00:33:53.045Z,0.00
2018-03-07T00:34:53.026Z,0.00
2018-03-07T00:35:52.996Z,0.00
2018-03-07T00:36:52.977Z,0.00
2018-03-07T00:37:52.954Z,0.00
2018-03-07T00:38:52.937Z,0.00
2018-03-07T00:39:52.913Z,0.00
2018-03-07T00:40:52.899Z,0.00
2018-03-07T00:41:52.877Z,0.00
2018-03-07T00:42:52.854Z,0.00
2018-03-07T00:43:52.831Z,0.00
2018-03-07T00:44:52.810Z,0.00
2018-03-07T00:45:52.789Z,0.00
2018-03-07T00:46:52.769Z,0.00
2018-03-07T00:47:52.748Z,0.00
2018-03-07T00:48:52.731Z,0.00
2018-03-07T00:49:52.706Z,0.00
2018-03-07T00:50:52.687Z,0.00
2018-03-07T00:51:52.663Z,0.00
2018-03-07T00:52:52.650Z,0.00
2018-03-07T00:53:52.629Z,0.00
2018-03-07T00:54:52.612Z,0.00
2018-03-07T00:55:52.584Z,0.00
2018-03-07T00:56:52.561Z,0.00
2018-03-07T00:57:52.544Z,0.00
2018-03-07T00:58:52.526Z,0.00
2018-03-07T00:59:52.527Z,0.00
2018-03-07T01:00:52.477Z,0.00
2018-03-07T01:01:52.457Z,0.00
2018-03-07T01:02:52.435Z,0.00
2018-03-07T01:03:52.421Z,0.00
2018-03-07T01:04:52.399Z,0.00
2018-03-07T01:05:52.375Z,0.00
2018-03-07T01:06:52.356Z,0.00
2018-03-07T01:07:52.335Z,0.00
2018-03-07T01:08:52.312Z,0.00
2018-03-07T01:09:52.296Z,0.00
2018-03-07T01:10:52.273Z,0.00
2018-03-07T01:11:52.252Z,0.00
2018-03-07T01:12:52.236Z,0.00
2018-03-07T01:13:52.210Z,0.00
2018-03-07T01:14:52.193Z,0.00
2018-03-07T01:15:52.170Z,0.00
2018-03-07T01:16:52.154Z,0.00
2018-03-07T01:17:52.126Z,0.00
2018-03-07T01:18:52.112Z,0.00
2018-03-07T01:19:52.087Z,0.00
2018-03-07T01:20:52.066Z,0.00
2018-03-07T01:21:52.046Z,0.00
2018-03-07T01:22:52.027Z,0.00
2018-03-07T01:23:52.004Z,0.00
2018-03-07T01:24:51.991Z,0.00
2018-03-07T01:25:51.972Z,0.00
2018-03-07T01:26:51.947Z,0.00
2018-03-07T01:27:51.921Z,0.00
2018-03-07T01:28:51.900Z,0.00
2018-03-07T01:29:51.879Z,0.00
2018-03-07T01:30:51.861Z,0.00
2018-03-07T01:31:51.845Z,0.00
2018-03-07T01:32:51.820Z,0.00
2018-03-07T01:33:51.797Z,0.00
2018-03-07T01:34:51.781Z,0.00
2018-03-07T01:35:51.754Z,0.00
2018-03-07T01:36:51.736Z,0.00
2018-03-07T01:37:51.716Z,0.00
2018-03-07T01:38:51.699Z,0.00
2018-03-07T01:39:51.676Z,0.00
2018-03-07T01:40:51.656Z,0.00
2018-03-07T01:41:51.632Z,0.00
2018-03-07T01:42:51.614Z,0.00
2018-03-07T01:43:51.592Z,0.00
2018-03-07T01:44:51.580Z,0.00
2018-03-07T01:45:51.553Z,0.00
2018-03-07T01:46:51.541Z,0.00
2018-03-07T01:47:51.512Z,0.00
2018-03-07T01:48:51.494Z,0.00
2018-03-07T01:49:51.471Z,0.00
2018-03-07T01:50:51.450Z,0.00
2018-03-07T01:51:51.436Z,0.00
2018-03-07T01:52:51.412Z,0.00
2018-03-07T01:53:51.411Z,0.00
2018-03-07T01:54:51.367Z,0.00
2018-03-07T01:55:51.348Z,0.00
2018-03-07T01:56:51.326Z,0.00
2018-03-07T01:57:51.306Z,0.00
2018-03-07T01:58:51.292Z,0.00
2018-03-07T01:59:51.266Z,0.00
2018-03-07T02:00:51.249Z,0.00
2018-03-07T02:01:51.226Z,0.00
2018-03-07T02:02:51.204Z,0.00
2018-03-07T02:03:51.188Z,0.00
2018-03-07T02:04:51.166Z,0.00
2018-03-07T02:05:51.140Z,0.00
2018-03-07T02:06:51.122Z,0.00
2018-03-07T02:07:51.102Z,0.00
2018-03-07T02:08:51.079Z,0.00
2018-03-07T02:09:51.059Z,0.00
2018-03-07T02:10:51.046Z,0.00
2018-03-07T02:11:51.017Z,0.00
2018-03-07T02:12:50.997Z,0.00
2018-03-07T02:13:50.975Z,0.00
2018-03-07T02:14:50.956Z,0.00
2018-03-07T02:15:50.937Z,0.00
2018-03-07T02:16:50.916Z,0.00
2018-03-07T02:17:50.895Z,0.00
2018-03-07T02:18:50.875Z,0.00
2018-03-07T02:19:50.853Z,0.00
2018-03-07T02:20:50.832Z,0.00
2018-03-07T02:21:50.815Z,0.00
2018-03-07T02:22:50.793Z,0.00
2018-03-07T02:23:50.770Z,0.00
2018-03-07T02:24:50.755Z,0.00
2018-03-07T02:25:50.729Z,0.00
2018-03-07T02:26:50.711Z,0.00
2018-03-07T02:27:50.690Z,0.00
2018-03-07T02:28:50.672Z,0.00
2018-03-07T02:29:50.650Z,0.00
2018-03-07T02:30:50.627Z,0.00
2018-03-07T02:31:50.606Z,0.00
2018-03-07T02:32:50.586Z,0.00
2018-03-07T02:33:50.573Z,0.00
2018-03-07T02:34:50.548Z,0.00
2018-03-07T02:35:50.525Z,0.00
2018-03-07T02:36:50.505Z,0.00
2018-03-07T02:37:50.483Z,0.00
2018-03-07T02:38:50.462Z,0.00
2018-03-07T02:39:50.448Z,0.00
2018-03-07T02:40:50.421Z,0.00
2018-03-07T02:41:50.405Z,0.00
2018-03-07T02:42:50.382Z,0.00
2018-03-07T02:43:50.386Z,0.00
2018-03-07T02:44:50.348Z,0.00
2018-03-07T02:45:50.317Z,0.00
2018-03-07T02:46:50.299Z,0.00
2018-03-07T02:47:50.277Z,0.00
2018-03-07T02:48:50.264Z,0.00
2018-03-07T02:49:50.238Z,0.00
2018-03-07T02:50:50.216Z,0.00
2018-03-07T02:51:50.196Z,0.00
2018-03-07T02:52:50.186Z,0.00
2018-03-07T02:53:50.156Z,0.00
2018-03-07T02:54:50.139Z,0.00
2018-03-07T02:55:50.113Z,0.00
2018-03-07T02:56:50.092Z,0.00
2018-03-07T02:57:50.072Z,0.00
2018-03-07T02:58:50.050Z,0.00
2018-03-07T02:59:50.034Z,0.00
2018-03-07T03:00:50.011Z,0.00
2018-03-07T03:01:49.993Z,0.00
2018-03-07T03:02:49.967Z,0.00
2018-03-07T03:03:49.956Z,0.00
2018-03-07T03:04:49.927Z,0.00
2018-03-07T03:05:49.906Z,0.00
2018-03-07T03:06:49.889Z,0.00
2018-03-07T03:07:49.864Z,0.00
2018-03-07T03:08:49.843Z,0.00
2018-03-07T03:09:49.822Z,0.00
2018-03-07T03:10:49.803Z,0.00
2018-03-07T03:11:49.787Z,0.00
2018-03-07T03:12:49.760Z,0.00
2018-03-07T03:13:49.742Z,0.00
2018-03-07T03:14:49.718Z,0.00
2018-03-07T03:15:49.702Z,0.00
2018-03-07T03:16:49.677Z,0.00
2018-03-07T03:17:49.654Z,0.00
2018-03-07T03:18:49.635Z,0.00
2018-03-07T03:19:49.615Z,0.00
2018-03-07T03:20:49.596Z,0.00
2018-03-07T03:21:49.572Z,0.00
2018-03-07T03:22:49.559Z,0.00
2018-03-07T03:23:49.533Z,0.00
2018-03-07T03:24:49.512Z,0.00
2018-03-07T03:25:49.488Z,0.00
2018-03-07T03:26:49.470Z,0.00
2018-03-07T03:27:49.450Z,0.00
2018-03-07T03:28:49.429Z,0.00
2018-03-07T03:29:49.409Z,0.00
2018-03-07T03:30:49.382Z,0.00
2018-03-07T03:31:49.366Z,0.00
2018-03-07T03:32:49.342Z,0.00
2018-03-07T03:33:49.321Z,0.00
2018-03-07T03:34:49.310Z,0.00
2018-03-07T03:35:49.280Z,0.00
2018-03-07T03:36:49.259Z,0.00
2018-03-07T03:37:49.236Z,0.00
2018-03-07T03:38:49.218Z,0.00
2018-03-07T03:39:49.199Z,0.00
2018-03-07T03:40:49.175Z,0.00
2018-03-07T03:41:49.153Z,0.00
2018-03-07T03:42:49.136Z,0.00
2018-03-07T03:43:49.110Z,0.00
2018-03-07T03:44:49.092Z,0.00
2018-03-07T03:45:49.069Z,0.00
2018-03-07T03:46:49.052Z,0.00
2018-03-07T03:47:49.031Z,0.00
2018-03-07T03:48:49.008Z,0.00
2018-03-07T03:49:48.988Z,0.00
2018-03-07T03:50:48.966Z,0.00
2018-03-07T03:51:48.951Z,0.00
2018-03-07T03:52:48.920Z,0.00
2018-03-07T03:53:48.903Z,0.00
2018-03-07T03:54:48.886Z,0.00
2018-03-07T03:55:48.862Z,0.00
2018-03-07T03:56:48.839Z,0.00
2018-03-07T03:57:48.818Z,0.00
2018-03-07T03:58:48.796Z,0.00
2018-03-07T03:59:48.784Z,0.00
2018-03-07T04:00:48.755Z,0.00
2018-03-07T04:01:48.732Z,0.00
2018-03-07T04:02:48.712Z,0.00
2018-03-07T04:03:48.688Z,0.00
2018-03-07T04:04:48.675Z,0.00
2018-03-07T04:05:48.649Z,0.00
2018-03-07T04:06:48.628Z,0.00
2018-03-07T04:07:48.606Z,0.00
2018-03-07T04:08:48.594Z,0.00
2018-03-07T04:09:48.563Z,0.00
2018-03-07T04:10:48.546Z,0.00
2018-03-07T04:11:48.523Z,0.00
2018-03-07T04:12:48.498Z,0.00
2018-03-07T04:13:48.483Z,0.00
2018-03-07T04:14:48.458Z,0.00
2018-03-07T04:15:48.434Z,0.00
2018-03-07T04:16:48.413Z,0.00
2018-03-07T04:17:48.394Z,0.00
2018-03-07T04:18:48.376Z,0.00
2018-03-07T04:19:48.356Z,0.00
2018-03-07T04:20:48.330Z,0.00
2018-03-07T04:21:48.309Z,0.00
2018-03-07T04:22:48.290Z,0.00
2018-03-07T04:23:48.266Z,0.00
2018-03-07T04:24:48.243Z,0.00
2018-03-07T04:25:48.227Z,0.00
2018-03-07T04:26:48.200Z,0.00
2018-03-07T04:27:48.181Z,0.00
2018-03-07T04:28:48.162Z,0.00
2018-03-07T04:29:48.142Z,0.00
2018-03-07T04:30:48.119Z,0.00
2018-03-07T04:31:48.099Z,0.00
2018-03-07T04:32:48.076Z,0.00
2018-03-07T04:33:48.056Z,0.00
2018-03-07T04:34:48.037Z,0.00
2018-03-07T04:35:48.016Z,0.00
2018-03-07T04:36:47.996Z,0.00
2018-03-07T04:37:47.970Z,0.00
2018-03-07T04:38:47.950Z,0.00
2018-03-07T04:39:47.928Z,0.00
2018-03-07T04:40:47.907Z,0.00
2018-03-07T04:41:47.886Z,0.00
2018-03-07T04:42:47.866Z,0.00
2018-03-07T04:43:47.842Z,0.00
2018-03-07T04:44:47.823Z,0.00
2018-03-07T04:45:47.802Z,0.00
2018-03-07T04:46:47.780Z,0.00
2018-03-07T04:47:47.757Z,0.00
2018-03-07T04:48:47.736Z,0.00
2018-03-07T04:49:47.717Z,0.00
2018-03-07T04:50:47.696Z,0.00
2018-03-07T04:51:47.676Z,0.00
2018-03-07T04:52:47.650Z,0.00
2018-03-07T04:53:47.637Z,0.00
2018-03-07T04:54:47.618Z,0.00
2018-03-07T04:55:47.586Z,0.00
2018-03-07T04:56:47.565Z,0.00
2018-03-07T04:57:47.547Z,0.00
2018-03-07T04:58:47.527Z,0.00
2018-03-07T04:59:47.499Z,0.00
2018-03-07T05:00:47.481Z,0.00
2018-03-07T05:01:47.459Z,0.00
2018-03-07T05:02:47.504Z,0.00
2018-03-07T05:03:47.416Z,0.00
2018-03-07T05:04:47.397Z,0.00
2018-03-07T05:05:47.375Z,0.00
2018-03-07T05:06:47.356Z,0.00
2018-03-07T05:07:47.335Z,0.00
2018-03-07T05:08:47.311Z,0.00
2018-03-07T05:09:47.295Z,0.00
2018-03-07T05:10:47.265Z,0.00
2018-03-07T05:11:47.247Z,0.00
2018-03-07T05:12:47.223Z,0.00
2018-03-07T05:13:47.205Z,0.00
2018-03-07T05:14:47.186Z,0.00
2018-03-07T05:15:47.162Z,0.00
2018-03-07T05:16:47.143Z,0.00
2018-03-07T05:17:47.122Z,0.00
2018-03-07T05:18:47.132Z,0.00
2018-03-07T05:19:47.073Z,0.00
2018-03-07T05:20:47.057Z,0.00
2018-03-07T05:21:47.034Z,0.00
2018-03-07T05:22:47.011Z,0.00
2018-03-07T05:23:46.991Z,0.00
2018-03-07T05:24:46.978Z,0.00
2018-03-07T05:25:46.951Z,0.00
2018-03-07T05:26:46.926Z,0.00
2018-03-07T05:27:46.905Z,0.00
2018-03-07T05:28:46.884Z,0.00
2018-03-07T05:29:46.862Z,0.00
2018-03-07T05:30:46.852Z,0.00
2018-03-07T05:31:46.822Z,0.00
2018-03-07T05:32:46.801Z,0.00
2018-03-07T05:33:46.777Z,0.00
2018-03-07T05:34:46.756Z,0.00
2018-03-07T05:35:46.739Z,0.00
2018-03-07T05:36:46.716Z,0.00
2018-03-07T05:37:46.695Z,0.00
2018-03-07T05:38:46.670Z,0.00
2018-03-07T05:39:46.649Z,0.00
2018-03-07T05:40:46.628Z,0.00
2018-03-07T05:41:46.606Z,0.00
2018-03-07T05:42:46.595Z,0.00
2018-03-07T05:43:46.568Z,0.00
2018-03-07T05:44:46.545Z,0.00
2018-03-07T05:45:46.521Z,4.00
2018-03-07T05:46:46.499Z,4.00
2018-03-07T05:47:46.488Z,0.00
2018-03-07T05:48:46.456Z,0.00
2018-03-07T05:49:46.437Z,4.00
2018-03-07T05:50:46.419Z,4.00
2018-03-07T05:51:46.398Z,0.00
2018-03-07T05:52:46.373Z,4.00
2018-03-07T05:53:46.356Z,4.00
2018-03-07T05:54:46.333Z,4.00
2018-03-07T05:55:46.308Z,4.00
2018-03-07T05:56:46.288Z,8.00
2018-03-07T05:57:46.268Z,4.00
2018-03-07T05:58:46.244Z,8.00
2018-03-07T05:59:46.221Z,8.00
2018-03-07T06:00:46.203Z,8.00
2018-03-07T06:01:46.179Z,8.00
2018-03-07T06:02:46.158Z,8.00
2018-03-07T06:03:46.137Z,12.00
2018-03-07T06:04:46.119Z,12.00
2018-03-07T06:05:46.097Z,12.00
2018-03-07T06:06:46.073Z,12.00
2018-03-07T06:07:46.059Z,16.00
2018-03-07T06:08:46.031Z,16.00
2018-03-07T06:09:46.011Z,16.00
2018-03-07T06:10:45.987Z,20.00
2018-03-07T06:11:45.970Z,24.00
2018-03-07T06:12:45.947Z,24.00
2018-03-07T06:13:45.927Z,28.00
2018-03-07T06:14:45.904Z,28.00
2018-03-07T06:15:45.893Z,28.00
2018-03-07T06:16:45.863Z,32.00
2018-03-07T06:17:45.840Z,36.00
2018-03-07T06:18:45.820Z,40.00
2018-03-07T06:19:45.792Z,36.00
2018-03-07T06:20:45.773Z,40.00
2018-03-07T06:21:45.754Z,44.00
2018-03-07T06:22:45.731Z,44.00
2018-03-07T06:23:45.714Z,48.00
2018-03-07T06:24:45.690Z,48.00
2018-03-07T06:25:45.667Z,56.00
2018-03-07T06:26:45.646Z,56.00
2018-03-07T06:27:45.623Z,60.00
2018-03-07T06:28:45.603Z,64.00
2018-03-07T06:29:45.584Z,64.00
2018-03-07T06:30:45.563Z,68.00
2018-03-07T06:31:45.541Z,72.00
2018-03-07T06:32:45.516Z,76.00
2018-03-07T06:33:45.498Z,80.00
2018-03-07T06:34:45.477Z,84.00
2018-03-07T06:35:45.456Z,88.00
2018-03-07T06:36:45.436Z,92.00
2018-03-07T06:37:45.413Z,92.00
2018-03-07T06:38:45.393Z,96.00
2018-03-07T06:39:45.371Z,104.00
2018-03-07T06:40:45.399Z,108.00
2018-03-07T06:41:45.337Z,108.00
2018-03-07T06:42:45.311Z,116.00
2018-03-07T06:43:45.282Z,120.00
2018-03-07T06:44:45.263Z,124.00
2018-03-07T06:45:45.248Z,128.00
2018-03-07T06:46:45.225Z,136.00
2018-03-07T06:47:45.198Z,140.00
2018-03-07T06:48:45.174Z,148.00
2018-03-07T06:49:45.158Z,156.00
2018-03-07T06:50:45.139Z,168.00
2018-03-07T06:51:45.114Z,172.00
2018-03-07T06:52:45.131Z,172.00
2018-03-07T06:53:45.074Z,188.00
2018-03-07T06:54:45.051Z,196.00
2018-03-07T06:55:45.027Z,200.00
2018-03-07T06:56:45.007Z,204.00
2018-03-07T06:57:44.988Z,208.00
2018-03-07T06:58:44.990Z,212.00
2018-03-07T06:59:44.948Z,220.00
2018-03-07T07:00:44.923Z,220.00
2018-03-07T07:01:44.899Z,228.00
2018-03-07T07:02:44.883Z,232.00
2018-03-07T07:03:44.856Z,236.00
2018-03-07T07:04:44.833Z,236.00
2018-03-07T07:05:44.818Z,240.00
2018-03-07T07:06:44.796Z,240.00
2018-03-07T07:07:44.773Z,244.00
2018-03-07T07:08:44.751Z,240.00
2018-03-07T07:09:44.733Z,244.00
2018-03-07T07:10:44.706Z,244.00
2018-03-07T07:11:44.689Z,244.00
2018-03-07T07:12:44.671Z,248.00
2018-03-07T07:13:44.644Z,248.00
2018-03-07T07:14:44.622Z,252.00
2018-03-07T07:15:44.606Z,252.00
2018-03-07T07:16:44.583Z,264.00
2018-03-07T07:17:44.558Z,268.00
2018-03-07T07:18:44.538Z,280.00
2018-03-07T07:19:44.519Z,296.00
2018-03-07T07:20:44.493Z,312.00
2018-03-07T07:21:44.471Z,324.00
2018-03-07T07:22:44.460Z,336.00
2018-03-07T07:23:44.426Z,344.00
2018-03-07T07:24:44.409Z,352.00
2018-03-07T07:25:44.393Z,368.00
2018-03-07T07:26:44.367Z,388.00
2018-03-07T07:27:44.347Z,396.00
2018-03-07T07:28:44.328Z,408.00
2018-03-07T07:29:44.309Z,416.00
2018-03-07T07:30:44.285Z,420.00
2018-03-07T07:31:44.257Z,432.00
2018-03-07T07:32:44.241Z,444.00
2018-03-07T07:33:44.219Z,448.00
2018-03-07T07:34:44.194Z,448.00
2018-03-07T07:35:44.172Z,452.00
2018-03-07T07:36:44.155Z,452.00
2018-03-07T07:37:44.129Z,448.00
2018-03-07T07:38:44.113Z,444.00
2018-03-07T07:39:44.088Z,452.00
2018-03-07T07:40:44.073Z,460.00
2018-03-07T07:41:44.049Z,468.00
2018-03-07T07:42:44.028Z,464.00
2018-03-07T07:43:44.006Z,464.00
2018-03-07T07:44:43.984Z,472.00
2018-03-07T07:45:43.961Z,496.00
2018-03-07T07:46:43.942Z,516.00
2018-03-07T07:47:43.917Z,528.00
2018-03-07T07:48:43.903Z,540.00
2018-03-07T07:49:43.886Z,552.00
2018-03-07T07:50:43.920Z,564.00
2018-03-07T07:51:43.838Z,580.00
2018-03-07T07:52:43.812Z,596.00
2018-03-07T07:53:43.796Z,604.00
2018-03-07T07:54:43.770Z,620.00
2018-03-07T07:55:43.752Z,628.00
2018-03-07T07:56:43.735Z,640.00
2018-03-07T07:57:43.730Z,652.00
2018-03-07T07:58:43.689Z,660.00
2018-03-07T07:59:43.665Z,672.00
2018-03-07T08:00:43.706Z,684.00
2018-03-07T08:01:43.625Z,700.00
2018-03-07T08:02:43.603Z,712.00
2018-03-07T08:03:43.581Z,720.00
2018-03-07T08:04:43.564Z,732.00
2018-03-07T08:05:43.546Z,752.00
2018-03-07T08:06:43.523Z,768.00
2018-03-07T08:07:43.502Z,780.00
2018-03-07T08:08:43.482Z,796.00
2018-03-07T08:09:43.460Z,804.00
2018-03-07T08:10:43.437Z,816.00
2018-03-07T08:11:43.424Z,828.00
2018-03-07T08:12:43.400Z,832.00
2018-03-07T08:13:43.378Z,848.00
2018-03-07T08:14:43.355Z,852.00
2018-03-07T08:15:43.333Z,860.00
2018-03-07T08:16:43.341Z,856.00
2018-03-07T08:17:43.298Z,844.00
2018-03-07T08:18:43.275Z,828.00
2018-03-07T08:19:43.254Z,804.00
2018-03-07T08:20:43.231Z,772.00
2018-03-07T08:21:43.214Z,748.00
2018-03-07T08:22:43.190Z,744.00
2018-03-07T08:23:43.167Z,728.00
2018-03-07T08:24:43.149Z,724.00
2018-03-07T08:25:43.130Z,712.00
2018-03-07T08:26:43.112Z,708.00
2018-03-07T08:27:43.107Z,716.00
2018-03-07T08:28:43.068Z,716.00
2018-03-07T08:29:43.056Z,716.00
2018-03-07T08:30:43.024Z,724.00
2018-03-07T08:31:43.008Z,716.00
2018-03-07T08:32:42.994Z,712.00
2018-03-07T08:33:42.965Z,720.00
2018-03-07T08:34:42.945Z,732.00
2018-03-07T08:35:42.956Z,724.00
2018-03-07T08:36:42.901Z,724.00
2018-03-07T08:37:42.886Z,728.00
2018-03-07T08:38:42.873Z,716.00
2018-03-07T08:39:42.845Z,716.00
2018-03-07T08:40:42.823Z,708.00
2018-03-07T08:41:42.799Z,700.00
2018-03-07T08:42:42.779Z,708.00
2018-03-07T08:43:42.758Z,704.00
2018-03-07T08:44:42.736Z,704.00
2018-03-07T08:45:42.724Z,708.00
2018-03-07T08:46:42.697Z,704.00
2018-03-07T08:47:42.677Z,700.00
2018-03-07T08:48:42.658Z,700.00
2018-03-07T08:49:42.642Z,692.00
2018-03-07T08:50:42.619Z,692.00
2018-03-07T08:51:42.600Z,692.00
2018-03-07T08:52:42.577Z,688.00
2018-03-07T08:53:42.561Z,680.00
2018-03-07T08:54:42.534Z,676.00
2018-03-07T08:55:42.513Z,696.00
2018-03-07T08:56:42.495Z,696.00
2018-03-07T08:57:42.477Z,700.00
2018-03-07T08:58:42.459Z,712.00
2018-03-07T08:59:42.440Z,716.00
2018-03-07T09:00:42.415Z,716.00
2018-03-07T09:01:42.391Z,724.00
2018-03-07T09:02:42.373Z,728.00
2018-03-07T09:03:42.352Z,736.00
2018-03-07T09:04:42.330Z,740.00
2018-03-07T09:05:42.308Z,744.00
2018-03-07T09:06:42.297Z,756.00
2018-03-07T09:07:42.268Z,752.00
2018-03-07T09:08:42.250Z,748.00
2018-03-07T09:09:42.228Z,764.00
2018-03-07T09:10:42.207Z,772.00
2018-03-07T09:11:42.186Z,780.00
2018-03-07T09:12:42.166Z,788.00
2018-03-07T09:13:42.147Z,788.00
2018-03-07T09:14:42.125Z,788.00
2018-03-07T09:15:42.107Z,800.00
2018-03-07T09:16:42.085Z,816.00
2018-03-07T09:17:42.069Z,828.00
2018-03-07T09:18:42.052Z,836.00
2018-03-07T09:19:42.023Z,828.00
2018-03-07T09:20:42.024Z,832.00
2018-03-07T09:21:41.985Z,832.00
2018-03-07T09:22:41.962Z,836.00
2018-03-07T09:23:41.946Z,812.00
2018-03-07T09:24:41.924Z,812.00
2018-03-07T09:25:41.908Z,828.00
2018-03-07T09:26:41.894Z,836.00
2018-03-07T09:27:41.860Z,848.00
2018-03-07T09:28:41.841Z,856.00
2018-03-07T09:29:41.824Z,860.00
2018-03-07T09:30:41.810Z,864.00
2018-03-07T09:31:41.780Z,872.00
2018-03-07T09:32:41.761Z,884.00
2018-03-07T09:33:41.745Z,900.00
2018-03-07T09:34:41.720Z,944.00
2018-03-07T09:35:41.706Z,1000.00
2018-03-07T09:36:41.681Z,1052.00
2018-03-07T09:37:41.666Z,1096.00
2018-03-07T09:38:41.640Z,1132.00
2018-03-07T09:39:41.621Z,1168.00
2018-03-07T09:40:41.601Z,1200.00
2018-03-07T09:41:41.582Z,1196.00
2018-03-07T09:42:41.578Z,1200.00
2018-03-07T09:43:41.538Z,1220.00
2018-03-07T09:44:41.519Z,1228.00
2018-03-07T09:45:41.498Z,1260.00
2018-03-07T09:46:41.476Z,1264.00
2018-03-07T09:47:41.459Z,1268.00
2018-03-07T09:48:41.437Z,1284.00
2018-03-07T09:49:41.417Z,1308.00
2018-03-07T09:50:41.395Z,1328.00
2018-03-07T09:51:41.379Z,1328.00
2018-03-07T09:52:41.356Z,1368.00
2018-03-07T09:53:41.352Z,1372.00
2018-03-07T09:54:41.318Z,1400.00
2018-03-07T09:55:41.294Z,1416.00
2018-03-07T09:56:41.278Z,1424.00
2018-03-07T09:57:41.259Z,1440.00
2018-03-07T09:58:41.237Z,1456.00
2018-03-07T09:59:41.221Z,1448.00
2018-03-07T10:00:41.198Z,1444.00
2018-03-07T10:01:41.185Z,1412.00
2018-03-07T10:02:41.158Z,1432.00
2018-03-07T10:03:41.138Z,1416.00
2018-03-07T10:04:41.117Z,1408.00
2018-03-07T10:05:41.097Z,1376.00
2018-03-07T10:06:41.080Z,1380.00
2018-03-07T10:07:41.058Z,1372.00
2018-03-07T10:08:41.042Z,1368.00
2018-03-07T10:09:41.018Z,1372.00
2018-03-07T10:10:41.003Z,1372.00
2018-03-07T10:11:40.978Z,1376.00
2018-03-07T10:12:40.961Z,1388.00
2018-03-07T10:13:40.938Z,1400.00
2018-03-07T10:14:40.923Z,1416.00
2018-03-07T10:15:40.898Z,1424.00
2018-03-07T10:16:40.897Z,1448.00
2018-03-07T10:17:40.862Z,1460.00
2018-03-07T10:18:40.842Z,1476.00
2018-03-07T10:19:40.825Z,1480.00
2018-03-07T10:20:40.821Z,1484.00
2018-03-07T10:21:40.787Z,1480.00
2018-03-07T10:22:40.763Z,1504.00
2018-03-07T10:23:40.752Z,1520.00
2018-03-07T10:24:40.725Z,1540.00
2018-03-07T10:25:40.711Z,1544.00
2018-03-07T10:26:40.704Z,1556.00
2018-03-07T10:27:40.670Z,1564.00
2018-03-07T10:28:40.655Z,1568.00
2018-03-07T10:29:40.629Z,1576.00
2018-03-07T10:30:40.618Z,1596.00
2018-03-07T10:31:40.591Z,1604.00
2018-03-07T10:32:40.568Z,1596.00
2018-03-07T10:33:40.550Z,1548.00
2018-03-07T10:34:40.546Z,1476.00
2018-03-07T10:35:40.517Z,1484.00
2018-03-07T10:36:40.498Z,1500.00
2018-03-07T10:37:40.477Z,1536.00
2018-03-07T10:38:40.464Z,1552.00
2018-03-07T10:39:40.441Z,1572.00
2018-03-07T10:40:40.420Z,1596.00
2018-03-07T10:41:40.396Z,1580.00
2018-03-07T10:42:40.378Z,1608.00
2018-03-07T10:43:40.358Z,1644.00
2018-03-07T10:44:40.338Z,1664.00
2018-03-07T10:45:40.323Z,1684.00
2018-03-07T10:46:40.310Z,1688.00
2018-03-07T10:47:40.289Z,1684.00
2018-03-07T10:48:40.270Z,1664.00
2018-03-07T10:49:40.249Z,1656.00
2018-03-07T10:50:40.228Z,1664.00
2018-03-07T10:51:40.211Z,1676.00
2018-03-07T10:52:40.192Z,1688.00
2018-03-07T10:53:40.174Z,1692.00
2018-03-07T10:54:40.157Z,1692.00
2018-03-07T10:55:40.130Z,1700.00
2018-03-07T10:56:40.125Z,1700.00
2018-03-07T10:57:40.102Z,1712.00
2018-03-07T10:58:40.078Z,1696.00
2018-03-07T10:59:40.057Z,1708.00
2018-03-07T11:00:40.039Z,1732.00
2018-03-07T11:01:40.020Z,1736.00
2018-03-07T11:02:40.005Z,1776.00
2018-03-07T11:03:39.983Z,1776.00
2018-03-07T11:04:39.965Z,1720.00
2018-03-07T11:05:39.947Z,1684.00
2018-03-07T11:06:39.927Z,1724.00
2018-03-07T11:07:39.911Z,1728.00
2018-03-07T11:08:39.898Z,1732.00
2018-03-07T11:09:39.868Z,1716.00
2018-03-07T11:10:39.858Z,1768.00
2018-03-07T11:11:39.837Z,1816.00
2018-03-07T11:12:39.816Z,1844.00
2018-03-07T11:13:39.793Z,1856.00
2018-03-07T11:14:39.799Z,1296.00
2018-03-07T11:15:39.760Z,1576.00
2018-03-07T11:16:39.739Z,1868.00
2018-03-07T11:17:39.720Z,1816.00
2018-03-07T11:18:39.707Z,692.00
2018-03-07T11:19:39.687Z,672.00
2018-03-07T11:20:39.721Z,784.00
2018-03-07T11:21:39.649Z,972.00
2018-03-07T11:22:39.627Z,944.00
2018-03-07T11:23:39.609Z,1724.00
2018-03-07T11:24:39.592Z,1864.00
2018-03-07T11:25:39.577Z,1928.00
2018-03-07T11:26:39.556Z,1984.00
2018-03-07T11:27:39.544Z,1996.00
2018-03-07T11:28:39.514Z,2032.00
2018-03-07T11:29:39.499Z,2068.00
2018-03-07T11:30:39.492Z,2100.00
2018-03-07T11:31:39.468Z,2052.00
2018-03-07T11:32:39.442Z,2028.00
2018-03-07T11:33:39.427Z,2056.00
2018-03-07T11:34:39.407Z,2060.00
2018-03-07T11:35:39.387Z,1984.00
2018-03-07T11:36:39.368Z,2008.00
2018-03-07T11:37:39.349Z,2092.00
2018-03-07T11:38:39.332Z,2020.00
2018-03-07T11:39:39.317Z,2040.00
2018-03-07T11:40:39.298Z,2032.00
2018-03-07T11:41:39.279Z,2064.00
2018-03-07T11:42:39.259Z,2080.00
2018-03-07T11:43:39.236Z,2096.00
2018-03-07T11:44:39.229Z,2108.00
2018-03-07T11:45:39.205Z,2136.00
2018-03-07T11:46:39.189Z,2172.00
2018-03-07T11:47:39.173Z,2184.00
2018-03-07T11:48:39.149Z,2156.00
2018-03-07T11:49:39.131Z,2144.00
2018-03-07T11:50:39.113Z,2148.00
2018-03-07T11:51:39.096Z,2160.00
2018-03-07T11:52:39.076Z,2092.00
2018-03-07T11:53:39.056Z,1636.00
2018-03-07T11:54:39.039Z,1292.00
2018-03-07T11:55:39.018Z,952.00
2018-03-07T11:56:39.000Z,900.00
2018-03-07T11:57:38.981Z,856.00
2018-03-07T11:58:38.967Z,692.00
2018-03-07T11:59:38.954Z,700.00
2018-03-07T12:00:38.929Z,712.00
2018-03-07T12:01:38.911Z,732.00
2018-03-07T12:02:38.893Z,732.00
2018-03-07T12:03:38.876Z,740.00
2018-03-07T12:04:38.856Z,752.00
2018-03-07T12:05:38.838Z,764.00
2018-03-07T12:06:38.819Z,776.00
2018-03-07T12:07:38.804Z,788.00
2018-03-07T12:08:38.796Z,764.00
2018-03-07T12:09:38.765Z,760.00
2018-03-07T12:10:38.748Z,772.00
2018-03-07T12:11:38.731Z,772.00
2018-03-07T12:12:38.715Z,780.00
2018-03-07T12:13:38.694Z,792.00
2018-03-07T12:14:38.674Z,808.00
2018-03-07T12:15:38.656Z,824.00
2018-03-07T12:16:38.645Z,840.00
2018-03-07T12:17:38.619Z,856.00
2018-03-07T12:18:38.603Z,852.00
2018-03-07T12:19:38.585Z,840.00
2018-03-07T12:20:38.565Z,816.00
2018-03-07T12:21:38.556Z,800.00
2018-03-07T12:22:38.536Z,784.00
2018-03-07T12:23:38.512Z,764.00
2018-03-07T12:24:38.488Z,740.00
2018-03-07T12:25:38.471Z,712.00
2018-03-07T12:26:38.459Z,684.00
2018-03-07T12:27:38.432Z,664.00
2018-03-07T12:28:38.417Z,656.00
2018-03-07T12:29:38.405Z,636.00
2018-03-07T12:30:38.377Z,628.00
2018-03-07T12:31:38.361Z,616.00
2018-03-07T12:32:38.347Z,600.00
2018-03-07T12:33:38.321Z,584.00
2018-03-07T12:34:38.304Z,584.00
2018-03-07T12:35:38.288Z,588.00
2018-03-07T12:36:38.276Z,608.00
2018-03-07T12:37:38.248Z,628.00
2018-03-07T12:38:38.231Z,660.00
2018-03-07T12:39:38.214Z,692.00
2018-03-07T12:40:38.196Z,720.00
2018-03-07T12:41:38.173Z,728.00
2018-03-07T12:42:38.157Z,732.00
2018-03-07T12:43:38.136Z,724.00
2018-03-07T12:44:38.124Z,712.00
2018-03-07T12:45:38.105Z,704.00
2018-03-07T12:46:38.081Z,684.00
2018-03-07T12:47:38.117Z,668.00
2018-03-07T12:48:38.044Z,652.00